Time;durP1;ratioP1;P1;durP2;ratioP2;P2;SDS_P1;SDS_P2;PMS_P1;PMS_P2;Temp;Humidity;BMP_temperature;BMP_pressure;BME280_temperature;BME280_humidity;BME280_pressure;Samples;Min_cycle;Max_cycle;Signal;HPM_P1;HPM_P2
2020/12/26 00:01:33;;;;;;;84.47;49.60;;;;;;;;;;4357005;32;20636;-58
2020/12/26 00:03:58;;;;;;;80.20;47.07;;;;;;;;;;4356334;32;20241;-57
2020/12/26 00:06:24;;;;;;;88.37;53.13;;;;;;;;;;4364978;32;20324;-57
2020/12/26 00:08:50;;;;;;;80.97;49.67;;;;;;;;;;4367960;32;20210;-58
2020/12/26 00:11:18;;;;;;;90.10;54.90;;;;;;;;;;4368901;32;20630;-57
2020/12/26 00:13:45;;;;;;;113.10;64.37;;;;;;;;;;4370493;32;20209;-56
2020/12/26 00:16:15;;;;;;;103.40;61.63;;;;;;;;;;4362136;32;20222;-55
2020/12/26 00:18:44;;;;;;;101.00;58.17;;;;;;;;;;4371612;32;20281;-54
2020/12/26 00:21:12;;;;;;;93.73;55.17;;;;;;;;;;4371644;32;20214;-55
2020/12/26 00:23:38;;;;;;;83.20;52.00;;;;;;;;;;4356200;32;20608;-55
2020/12/26 00:26:04;;;;;;;75.27;47.37;;;;;;;;;;4359696;32;20373;-58
2020/12/26 00:28:30;;;;;;;65.07;42.43;;;;;;;;;;4364765;32;20707;-59
2020/12/26 00:30:56;;;;;;;60.97;38.27;;;;;;;;;;4370999;32;20294;-58
2020/12/26 00:33:21;;;;;;;72.57;43.50;;;;;;;;;;4368539;32;20202;-58
2020/12/26 00:35:47;;;;;;;78.43;48.83;;;;;;;;;;4353791;32;20331;-57
2020/12/26 00:38:13;;;;;;;87.20;57.67;;;;;;;;;;4371170;32;20559;-58
2020/12/26 00:40:39;;;;;;;76.33;47.83;;;;;;;;;;4372023;32;20284;-57
2020/12/26 00:43:04;;;;;;;71.87;45.90;;;;;;;;;;4368125;32;20343;-57
2020/12/26 00:45:30;;;;;;;71.17;43.67;;;;;;;;;;4368178;32;20280;-57
2020/12/26 00:47:55;;;;;;;64.53;41.47;;;;;;;;;;4364660;32;20297;-58
2020/12/26 00:50:21;;;;;;;70.53;45.03;;;;;;;;;;4369018;32;20301;-57
2020/12/26 00:52:46;;;;;;;82.60;46.77;;;;;;;;;;4370027;32;20221;-56
2020/12/26 00:55:12;;;;;;;79.17;47.83;;;;;;;;;;4365155;32;20301;-58
2020/12/26 00:57:40;;;;;;;74.43;46.63;;;;;;;;;;4356655;32;20257;-57
2020/12/26 01:00:05;;;;;;;79.67;49.23;;;;;;;;;;4370979;32;20248;-57
2020/12/26 01:02:31;;;;;;;77.53;52.43;;;;;;;;;;4357397;32;20254;-55
2020/12/26 01:04:56;;;;;;;82.07;52.30;;;;;;;;;;4357640;32;20261;-59
2020/12/26 01:07:22;;;;;;;111.77;68.77;;;;;;;;;;4368311;32;20374;-59
2020/12/26 01:09:47;;;;;;;95.13;62.17;;;;;;;;;;4367900;32;20651;-59
2020/12/26 01:12:13;;;;;;;108.00;67.10;;;;;;;;;;4365731;32;20350;-55
2020/12/26 01:14:42;;;;;;;128.90;76.77;;;;;;;;;;4369158;32;20218;-57
2020/12/26 01:17:08;;;;;;;192.00;96.37;;;;;;;;;;4365862;32;20222;-58
2020/12/26 01:19:33;;;;;;;182.57;96.53;;;;;;;;;;4351762;32;20257;-60
2020/12/26 01:21:59;;;;;;;247.57;119.83;;;;;;;;;;4370497;32;20370;-58
2020/12/26 01:24:24;;;;;;;213.00;98.17;;;;;;;;;;4366060;32;20688;-59
2020/12/26 01:26:51;;;;;;;231.43;113.97;;;;;;;;;;4368888;32;20349;-58
2020/12/26 01:29:18;;;;;;;175.27;96.73;;;;;;;;;;4369336;32;20331;-58
2020/12/26 01:31:49;;;;;;;130.77;79.57;;;;;;;;;;4370695;32;20240;-58
2020/12/26 01:34:14;;;;;;;94.30;59.90;;;;;;;;;;4370925;32;20363;-58
2020/12/26 01:36:39;;;;;;;85.77;53.73;;;;;;;;;;4357261;32;20277;-59
2020/12/26 01:39:05;;;;;;;128.27;69.07;;;;;;;;;;4369974;32;20308;-59
2020/12/26 01:41:30;;;;;;;118.80;65.63;;;;;;;;;;4357343;32;20327;-58
2020/12/26 01:44:01;;;;;;;82.07;47.10;;;;;;;;;;4353489;33;20251;-58
2020/12/26 01:46:31;;;;;;;68.37;40.30;;;;;;;;;;4370948;32;20583;-57
2020/12/26 01:48:59;;;;;;;61.60;37.87;;;;;;;;;;4369925;32;20659;-58
2020/12/26 01:51:26;;;;;;;48.63;32.07;;;;;;;;;;4356655;32;20267;-57
2020/12/26 01:53:53;;;;;;;48.93;27.03;;;;;;;;;;4366069;32;20250;-57
2020/12/26 01:56:19;;;;;;;186.67;69.63;;;;;;;;;;4372020;32;20218;-57
2020/12/26 01:58:44;;;;;;;306.93;106.30;;;;;;;;;;4373471;32;20257;-56
2020/12/26 02:01:10;;;;;;;250.23;93.87;;;;;;;;;;4373014;32;20710;-57
2020/12/26 02:03:42;;;;;;;264.57;98.33;;;;;;;;;;4373236;32;20327;-56
2020/12/26 02:06:09;;;;;;;210.33;81.70;;;;;;;;;;4373578;32;20340;-57
2020/12/26 02:08:35;;;;;;;214.80;78.30;;;;;;;;;;4371253;32;20704;-57
2020/12/26 02:11:04;;;;;;;176.47;70.10;;;;;;;;;;4373439;32;20281;-57
2020/12/26 02:13:29;;;;;;;101.20;53.40;;;;;;;;;;4374783;32;20269;-56
2020/12/26 02:16:06;;;;;;;78.13;44.07;;;;;;;;;;4374472;32;20323;-58
2020/12/26 02:18:33;;;;;;;48.53;30.50;;;;;;;;;;4370571;32;20613;-57
2020/12/26 02:21:02;;;;;;;44.77;27.43;;;;;;;;;;4373151;32;20202;-57
2020/12/26 02:23:28;;;;;;;47.77;26.03;;;;;;;;;;4370904;32;20226;-57
2020/12/26 02:25:57;;;;;;;59.00;36.10;;;;;;;;;;4373516;32;20354;-57
2020/12/26 02:28:24;;;;;;;62.27;34.57;;;;;;;;;;4373721;32;20962;-56
2020/12/26 02:30:51;;;;;;;45.63;29.20;;;;;;;;;;4360391;32;20273;-56
2020/12/26 02:33:16;;;;;;;37.57;25.47;;;;;;;;;;4371029;32;20375;-56
2020/12/26 02:35:48;;;;;;;34.63;23.63;;;;;;;;;;4371953;32;20484;-56
2020/12/26 02:38:15;;;;;;;39.43;25.70;;;;;;;;;;4371079;32;20794;-56
2020/12/26 02:40:40;;;;;;;57.93;27.23;;;;;;;;;;4368800;32;20652;-55
2020/12/26 02:43:18;;;;;;;84.03;36.37;;;;;;;;;;4369060;32;20339;-55
2020/12/26 02:45:44;;;;;;;71.77;32.03;;;;;;;;;;4375667;32;20319;-54
2020/12/26 02:48:10;;;;;;;53.10;30.83;;;;;;;;;;4359759;32;20238;-55
2020/12/26 02:50:35;;;;;;;46.83;30.17;;;;;;;;;;4372859;32;20371;-55
2020/12/26 02:53:01;;;;;;;38.93;25.70;;;;;;;;;;4369883;32;20277;-55
2020/12/26 02:55:26;;;;;;;115.20;49.70;;;;;;;;;;4375642;32;20274;-55
2020/12/26 02:57:51;;;;;;;81.27;38.17;;;;;;;;;;4372357;32;20282;-55
2020/12/26 03:00:17;;;;;;;57.07;26.47;;;;;;;;;;4379071;32;20732;-56
2020/12/26 03:02:43;;;;;;;54.47;32.30;;;;;;;;;;4369869;32;20588;-57
2020/12/26 03:05:08;;;;;;;54.63;33.10;;;;;;;;;;4373441;32;20258;-57
2020/12/26 03:07:34;;;;;;;181.40;82.20;;;;;;;;;;4358824;32;20333;-57
2020/12/26 03:09:59;;;;;;;184.30;91.27;;;;;;;;;;4369741;32;20259;-57
2020/12/26 03:12:25;;;;;;;161.30;78.07;;;;;;;;;;4370871;32;20605;-57
2020/12/26 03:14:50;;;;;;;138.77;70.13;;;;;;;;;;4372503;32;20316;-57
2020/12/26 03:17:15;;;;;;;141.03;71.73;;;;;;;;;;4371224;32;20301;-56
2020/12/26 03:19:41;;;;;;;164.40;76.60;;;;;;;;;;4370422;32;20308;-58
2020/12/26 03:22:06;;;;;;;148.00;67.80;;;;;;;;;;4373165;32;20562;-57
2020/12/26 03:24:32;;;;;;;63.03;34.50;;;;;;;;;;4366168;32;20553;-57
2020/12/26 03:26:57;;;;;;;58.13;32.73;;;;;;;;;;4365502;32;20311;-57
2020/12/26 03:29:22;;;;;;;53.47;28.17;;;;;;;;;;4371946;32;20260;-57
2020/12/26 03:31:48;;;;;;;63.70;31.50;;;;;;;;;;4368630;32;20442;-56
2020/12/26 03:34:13;;;;;;;84.70;37.77;;;;;;;;;;4371481;32;20289;-57
2020/12/26 03:36:39;;;;;;;85.17;42.33;;;;;;;;;;4372536;32;20272;-57
2020/12/26 03:39:04;;;;;;;91.43;44.43;;;;;;;;;;4371584;32;20229;-57
2020/12/26 03:41:30;;;;;;;84.03;42.20;;;;;;;;;;4358889;32;20273;-55
2020/12/26 03:43:56;;;;;;;76.03;39.23;;;;;;;;;;4353791;32;20706;-55
2020/12/26 03:46:21;;;;;;;54.27;33.17;;;;;;;;;;4372331;32;20292;-54
2020/12/26 03:48:47;;;;;;;62.57;31.73;;;;;;;;;;4361755;32;20237;-54
2020/12/26 03:51:12;;;;;;;51.13;27.20;;;;;;;;;;4372499;32;20348;-54
2020/12/26 03:53:38;;;;;;;49.37;27.07;;;;;;;;;;4371056;32;20364;-54
2020/12/26 03:56:04;;;;;;;57.67;28.47;;;;;;;;;;4372270;32;20348;-54
2020/12/26 03:58:29;;;;;;;45.87;24.33;;;;;;;;;;4371527;32;20297;-54
2020/12/26 04:00:55;;;;;;;56.97;30.53;;;;;;;;;;4371352;32;20301;-54
2020/12/26 04:03:20;;;;;;;59.10;32.10;;;;;;;;;;4371023;32;20266;-55
2020/12/26 04:05:45;;;;;;;76.30;37.57;;;;;;;;;;4358002;32;20305;-54
2020/12/26 04:08:11;;;;;;;56.27;31.50;;;;;;;;;;4371302;32;20210;-54
2020/12/26 04:10:36;;;;;;;51.13;28.37;;;;;;;;;;4367743;32;20226;-54
2020/12/26 04:13:02;;;;;;;70.70;33.33;;;;;;;;;;4356192;32;20245;-54
2020/12/26 04:15:27;;;;;;;54.40;28.43;;;;;;;;;;4371662;32;20257;-53
2020/12/26 04:17:53;;;;;;;43.07;22.70;;;;;;;;;;4371281;32;20290;-53
2020/12/26 04:20:18;;;;;;;39.33;22.00;;;;;;;;;;4371630;32;20233;-54
2020/12/26 04:22:44;;;;;;;36.67;21.27;;;;;;;;;;4375718;32;20336;-53
2020/12/26 04:25:09;;;;;;;41.40;22.77;;;;;;;;;;4374783;32;20218;-54
2020/12/26 04:27:35;;;;;;;44.17;24.50;;;;;;;;;;4378156;32;20201;-54
2020/12/26 04:30:00;;;;;;;45.40;24.47;;;;;;;;;;4374901;32;20230;-54
2020/12/26 04:32:26;;;;;;;52.10;25.40;;;;;;;;;;4360205;32;20408;-54
2020/12/26 04:34:51;;;;;;;42.67;26.40;;;;;;;;;;4374476;32;20221;-54
2020/12/26 04:37:17;;;;;;;39.20;26.23;;;;;;;;;;4357273;32;20288;-54
2020/12/26 04:39:43;;;;;;;45.77;29.10;;;;;;;;;;4370455;32;20523;-54
2020/12/26 04:42:09;;;;;;;51.27;33.20;;;;;;;;;;4358499;32;20218;-54
2020/12/26 04:44:35;;;;;;;45.67;28.27;;;;;;;;;;4369557;32;20314;-54
2020/12/26 04:47:09;;;;;;;44.60;28.90;;;;;;;;;;4373440;32;20277;-53
2020/12/26 04:49:38;;;;;;;47.20;29.93;;;;;;;;;;4371441;32;20300;-52
2020/12/26 04:52:04;;;;;;;44.37;29.53;;;;;;;;;;4371660;32;20440;-52
2020/12/26 04:54:33;;;;;;;45.07;25.90;;;;;;;;;;4360539;32;20273;-53
2020/12/26 04:56:58;;;;;;;53.20;30.63;;;;;;;;;;4370674;32;20574;-54
2020/12/26 04:59:25;;;;;;;45.07;24.17;;;;;;;;;;4371509;32;20246;-52
2020/12/26 05:01:51;;;;;;;42.90;26.70;;;;;;;;;;4372588;32;20320;-54
2020/12/26 05:04:18;;;;;;;45.43;29.03;;;;;;;;;;4369166;32;20223;-53
2020/12/26 05:06:53;;;;;;;45.20;29.67;;;;;;;;;;4371447;32;20718;-54
2020/12/26 05:09:20;;;;;;;48.53;29.83;;;;;;;;;;4357708;32;20328;-53
2020/12/26 05:11:55;;;;;;;63.03;34.70;;;;;;;;;;4370694;32;20376;-54
2020/12/26 05:14:22;;;;;;;92.37;51.37;;;;;;;;;;4355218;32;20328;-53
2020/12/26 05:16:48;;;;;;;80.87;45.83;;;;;;;;;;4371438;32;20274;-53
2020/12/26 05:19:14;;;;;;;70.63;42.13;;;;;;;;;;4371034;32;20277;-54
2020/12/26 05:21:40;;;;;;;64.93;38.60;;;;;;;;;;4373930;32;20311;-53
2020/12/26 05:24:11;;;;;;;60.63;37.27;;;;;;;;;;4357330;32;20281;-53
2020/12/26 05:26:44;;;;;;;60.13;35.70;;;;;;;;;;4373282;32;20281;-53
2020/12/26 05:29:12;;;;;;;67.80;40.60;;;;;;;;;;4370653;32;20246;-53
2020/12/26 05:31:45;;;;;;;59.03;36.33;;;;;;;;;;4374002;32;20532;-53
2020/12/26 05:34:11;;;;;;;58.00;37.67;;;;;;;;;;4373430;32;20292;-53
2020/12/26 05:36:36;;;;;;;56.90;36.17;;;;;;;;;;4368805;32;20829;-54
2020/12/26 05:39:03;;;;;;;87.33;47.23;;;;;;;;;;4371995;32;20320;-54
2020/12/26 05:41:29;;;;;;;87.00;48.03;;;;;;;;;;4375911;32;20222;-54
2020/12/26 05:43:56;;;;;;;75.63;45.77;;;;;;;;;;4373765;32;20350;-55
2020/12/26 05:46:22;;;;;;;67.67;39.30;;;;;;;;;;4373202;32;20617;-54
2020/12/26 05:48:48;;;;;;;69.93;40.07;;;;;;;;;;4372804;32;20249;-55
2020/12/26 05:51:28;;;;;;;76.80;43.13;;;;;;;;;;4376422;32;20218;-55
2020/12/26 05:54:02;;;;;;;89.20;48.50;;;;;;;;;;4372986;32;20246;-55
2020/12/26 05:56:33;;;;;;;86.17;52.63;;;;;;;;;;4370741;32;20260;-55
2020/12/26 05:58:58;;;;;;;104.23;56.77;;;;;;;;;;4371393;32;20685;-55
2020/12/26 06:01:24;;;;;;;98.93;58.30;;;;;;;;;;4373254;32;20277;-54
2020/12/26 06:03:49;;;;;;;98.47;56.80;;;;;;;;;;4373512;32;20616;-55
2020/12/26 06:06:15;;;;;;;189.97;108.23;;;;;;;;;;4358836;32;20230;-55
2020/12/26 06:08:42;;;;;;;198.73;117.70;;;;;;;;;;4376954;32;20210;-55
2020/12/26 06:11:07;;;;;;;184.57;108.57;;;;;;;;;;4373747;32;20297;-55
2020/12/26 06:13:35;;;;;;;202.70;118.30;;;;;;;;;;4372613;32;20612;-55
2020/12/26 06:16:24;;;;;;;168.47;103.07;;;;;;;;;;4372117;32;20218;-55
2020/12/26 06:18:56;;;;;;;173.27;104.70;;;;;;;;;;4363605;32;20324;-54
2020/12/26 06:21:23;;;;;;;176.03;102.60;;;;;;;;;;4379666;32;20232;-55
2020/12/26 06:23:50;;;;;;;158.33;92.57;;;;;;;;;;4376490;32;20222;-55
2020/12/26 06:26:16;;;;;;;162.87;95.30;;;;;;;;;;4357494;32;20214;-55
2020/12/26 06:28:44;;;;;;;152.00;87.97;;;;;;;;;;4368474;32;20222;-54
2020/12/26 06:31:10;;;;;;;154.83;88.43;;;;;;;;;;4359963;32;20238;-54
2020/12/26 06:33:44;;;;;;;170.07;91.10;;;;;;;;;;4357568;32;20419;-54
2020/12/26 06:36:11;;;;;;;170.73;92.27;;;;;;;;;;4377166;32;20210;-55
2020/12/26 06:38:37;;;;;;;165.40;93.90;;;;;;;;;;4374810;32;20354;-55
2020/12/26 06:41:04;;;;;;;150.80;93.93;;;;;;;;;;4376773;32;20214;-55
2020/12/26 06:43:48;;;;;;;149.43;92.07;;;;;;;;;;4364631;32;20230;-54
2020/12/26 06:46:13;;;;;;;137.73;86.97;;;;;;;;;;4360599;32;20217;-55
2020/12/26 06:48:40;;;;;;;131.17;77.17;;;;;;;;;;4371049;32;20571;-54
2020/12/26 06:51:28;;;;;;;133.50;82.13;;;;;;;;;;4372754;32;20292;-54
2020/12/26 06:53:55;;;;;;;134.13;83.13;;;;;;;;;;4357499;32;20262;-53
2020/12/26 06:56:35;;;;;;;144.33;87.27;;;;;;;;;;4371071;32;20642;-54
2020/12/26 06:59:14;;;;;;;158.37;92.13;;;;;;;;;;4367713;32;20762;-53
2020/12/26 07:01:42;;;;;;;150.83;89.00;;;;;;;;;;4372727;32;20256;-53
2020/12/26 07:04:11;;;;;;;161.87;94.60;;;;;;;;;;4373708;32;20628;-54
2020/12/26 07:06:49;;;;;;;148.43;91.27;;;;;;;;;;4370633;32;20317;-54
2020/12/26 07:09:18;;;;;;;141.73;89.53;;;;;;;;;;4377563;32;20303;-55
2020/12/26 07:11:50;;;;;;;146.03;93.60;;;;;;;;;;4371060;32;20202;-53
2020/12/26 07:14:30;;;;;;;167.60;112.63;;;;;;;;;;4354342;32;20588;-54
2020/12/26 07:17:06;;;;;;;185.30;117.77;;;;;;;;;;4367130;32;20331;-54
2020/12/26 07:19:39;;;;;;;182.30;118.93;;;;;;;;;;4371452;32;20604;-53
2020/12/26 07:22:15;;;;;;;184.47;119.93;;;;;;;;;;4372350;32;20214;-54
2020/12/26 07:24:51;;;;;;;177.10;110.10;;;;;;;;;;4367132;32;20226;-54
2020/12/26 07:27:24;;;;;;;171.87;111.83;;;;;;;;;;4370153;32;20769;-52
2020/12/26 07:30:17;;;;;;;171.40;106.33;;;;;;;;;;4369813;32;20261;-53
2020/12/26 07:32:57;;;;;;;205.63;121.30;;;;;;;;;;4369483;32;20276;-54
2020/12/26 07:35:23;;;;;;;194.70;115.83;;;;;;;;;;4368134;32;20241;-54
2020/12/26 07:38:00;;;;;;;210.10;131.17;;;;;;;;;;4372553;32;20563;-53
2020/12/26 07:40:29;;;;;;;207.63;122.93;;;;;;;;;;4369030;32;20344;-53
2020/12/26 07:42:56;;;;;;;207.47;129.27;;;;;;;;;;4372136;32;20256;-54
2020/12/26 07:45:27;;;;;;;238.30;146.37;;;;;;;;;;4370869;32;20647;-53
2020/12/26 07:47:55;;;;;;;274.67;165.57;;;;;;;;;;4365739;32;20291;-52
2020/12/26 07:50:23;;;;;;;387.03;217.80;;;;;;;;;;4371504;32;20222;-53
2020/12/26 07:52:50;;;;;;;354.03;212.10;;;;;;;;;;4372705;32;20209;-54
2020/12/26 07:55:16;;;;;;;391.37;231.87;;;;;;;;;;4371538;32;20676;-54
2020/12/26 07:57:41;;;;;;;420.50;245.77;;;;;;;;;;4369574;32;20214;-55
2020/12/26 08:00:08;;;;;;;435.90;251.27;;;;;;;;;;4360572;32;20260;-55
2020/12/26 08:02:33;;;;;;;413.73;250.23;;;;;;;;;;4370661;32;20234;-55
2020/12/26 08:04:59;;;;;;;404.67;242.17;;;;;;;;;;4370674;32;20628;-55
2020/12/26 08:07:32;;;;;;;375.17;226.73;;;;;;;;;;4375757;32;20285;-55
2020/12/26 08:09:58;;;;;;;249.67;155.43;;;;;;;;;;4368997;32;20236;-54
2020/12/26 08:12:24;;;;;;;179.73;115.43;;;;;;;;;;4371812;32;20214;-53
2020/12/26 08:14:57;;;;;;;210.47;133.73;;;;;;;;;;4370336;32;20222;-54
2020/12/26 08:17:24;;;;;;;216.60;144.90;;;;;;;;;;4370882;32;20209;-53
2020/12/26 08:19:59;;;;;;;214.97;142.47;;;;;;;;;;4370874;32;20321;-54
2020/12/26 08:22:26;;;;;;;237.23;152.50;;;;;;;;;;4362791;32;20797;-54
2020/12/26 08:25:08;;;;;;;261.83;172.33;;;;;;;;;;4374083;32;20218;-53
2020/12/26 08:27:34;;;;;;;274.53;177.87;;;;;;;;;;4371366;32;20225;-54
2020/12/26 08:30:04;;;;;;;264.73;174.73;;;;;;;;;;4373909;32;20233;-54
2020/12/26 08:32:37;;;;;;;307.00;190.83;;;;;;;;;;4369329;32;20303;-53
2020/12/26 08:35:06;;;;;;;289.50;180.17;;;;;;;;;;4368824;32;20234;-54
2020/12/26 08:37:39;;;;;;;255.90;158.33;;;;;;;;;;4368586;32;20706;-54
2020/12/26 08:40:12;;;;;;;257.03;160.50;;;;;;;;;;4371161;32;20246;-54
2020/12/26 08:42:38;;;;;;;266.53;170.90;;;;;;;;;;4371012;32;20628;-54
2020/12/26 08:45:25;;;;;;;314.73;200.17;;;;;;;;;;4369530;32;20313;-54
2020/12/26 08:47:51;;;;;;;317.37;200.77;;;;;;;;;;4360149;32;20639;-53
2020/12/26 08:50:16;;;;;;;287.53;190.83;;;;;;;;;;4374946;32;20288;-54
2020/12/26 08:52:44;;;;;;;267.70;176.27;;;;;;;;;;4370261;32;20214;-54
2020/12/26 08:55:10;;;;;;;316.83;196.37;;;;;;;;;;4369906;32;20678;-54
2020/12/26 08:57:37;;;;;;;299.97;193.83;;;;;;;;;;4370959;32;20313;-55
2020/12/26 09:00:19;;;;;;;339.97;218.57;;;;;;;;;;4370927;32;20227;-54
2020/12/26 09:02:49;;;;;;;268.67;167.90;;;;;;;;;;4369873;32;20214;-54
2020/12/26 09:05:23;;;;;;;320.53;194.37;;;;;;;;;;4360694;32;20296;-54
2020/12/26 09:08:06;;;;;;;320.57;213.70;;;;;;;;;;4378918;32;20244;-56
2020/12/26 09:10:34;;;;;;;296.97;183.17;;;;;;;;;;4374472;32;20234;-56
2020/12/26 09:13:04;;;;;;;295.00;187.60;;;;;;;;;;4374110;32;20556;-55
2020/12/26 09:15:54;;;;;;;321.50;197.30;;;;;;;;;;4375322;32;20266;-55
2020/12/26 09:18:22;;;;;;;324.20;199.47;;;;;;;;;;4372923;32;20218;-56
2020/12/26 09:20:52;;;;;;;298.53;192.87;;;;;;;;;;4374140;32;20375;-54
2020/12/26 09:23:18;;;;;;;333.47;214.80;;;;;;;;;;4370654;32;20284;-54
2020/12/26 09:25:44;;;;;;;371.87;228.67;;;;;;;;;;4372455;32;20346;-55
2020/12/26 09:28:10;;;;;;;329.60;211.97;;;;;;;;;;4374652;32;20769;-55
2020/12/26 09:30:35;;;;;;;324.73;203.90;;;;;;;;;;4382311;32;20301;-55
2020/12/26 09:33:01;;;;;;;282.73;172.90;;;;;;;;;;4376787;32;20233;-54
2020/12/26 09:35:27;;;;;;;375.57;239.93;;;;;;;;;;4373134;32;20253;-55
2020/12/26 09:37:53;;;;;;;329.93;212.90;;;;;;;;;;4374306;32;20596;-55
2020/12/26 09:40:19;;;;;;;315.77;197.73;;;;;;;;;;4373638;32;20294;-56
2020/12/26 09:42:51;;;;;;;286.53;185.77;;;;;;;;;;4374077;32;20252;-54
2020/12/26 09:45:17;;;;;;;250.43;161.13;;;;;;;;;;4376933;32;20339;-55
2020/12/26 09:47:42;;;;;;;281.37;183.03;;;;;;;;;;4380487;32;20320;-55
2020/12/26 09:50:08;;;;;;;274.67;178.03;;;;;;;;;;4376622;32;20233;-54
2020/12/26 09:52:33;;;;;;;227.90;153.63;;;;;;;;;;4366646;32;20352;-53
2020/12/26 09:54:58;;;;;;;218.47;140.33;;;;;;;;;;4375386;32;21121;-55
2020/12/26 09:57:24;;;;;;;211.93;133.83;;;;;;;;;;4374956;32;20491;-55
2020/12/26 09:59:49;;;;;;;196.27;125.70;;;;;;;;;;4372167;32;20849;-54
2020/12/26 10:02:15;;;;;;;359.50;195.40;;;;;;;;;;4366174;32;20317;-54
2020/12/26 10:04:40;;;;;;;214.90;136.33;;;;;;;;;;4369856;32;20340;-55
2020/12/26 10:07:06;;;;;;;194.13;123.87;;;;;;;;;;4374011;32;20341;-57
2020/12/26 10:09:31;;;;;;;193.43;125.57;;;;;;;;;;4373807;32;20246;-55
2020/12/26 10:11:56;;;;;;;179.73;118.40;;;;;;;;;;4374210;32;20267;-57
2020/12/26 10:14:22;;;;;;;195.60;125.33;;;;;;;;;;4382371;32;20456;-57
2020/12/26 10:16:48;;;;;;;176.23;117.27;;;;;;;;;;4372586;32;20285;-56
2020/12/26 10:19:14;;;;;;;162.20;106.00;;;;;;;;;;4367643;32;20440;-54
2020/12/26 10:21:39;;;;;;;170.37;106.17;;;;;;;;;;4370699;32;20241;-55
2020/12/26 10:24:04;;;;;;;213.73;131.27;;;;;;;;;;4375355;32;20266;-56
2020/12/26 10:26:30;;;;;;;314.80;168.57;;;;;;;;;;4370546;32;20423;-55
2020/12/26 10:28:55;;;;;;;149.27;79.70;;;;;;;;;;4372138;32;20715;-56
2020/12/26 10:31:27;;;;;;;111.23;65.13;;;;;;;;;;4377051;32;20309;-56
2020/12/26 10:33:53;;;;;;;92.73;59.23;;;;;;;;;;4362705;32;20219;-56
2020/12/26 10:36:18;;;;;;;82.30;57.13;;;;;;;;;;4356935;32;20328;-57
2020/12/26 10:38:44;;;;;;;64.00;36.53;;;;;;;;;;4372973;32;20253;-57
2020/12/26 10:41:09;;;;;;;76.60;52.23;;;;;;;;;;4373686;32;20521;-57
2020/12/26 10:43:35;;;;;;;72.70;47.67;;;;;;;;;;4374625;32;20575;-57
2020/12/26 10:46:00;;;;;;;88.67;55.03;;;;;;;;;;4359753;32;20826;-57
2020/12/26 10:48:26;;;;;;;32.37;18.20;;;;;;;;;;4373570;32;20353;-56
2020/12/26 10:50:51;;;;;;;99.17;64.00;;;;;;;;;;4376740;32;21041;-56
2020/12/26 10:53:17;;;;;;;130.97;83.53;;;;;;;;;;4368637;32;20349;-57
2020/12/26 10:55:42;;;;;;;129.00;85.37;;;;;;;;;;4374253;32;20280;-55
2020/12/26 10:58:07;;;;;;;74.83;37.67;;;;;;;;;;4373246;32;20203;-55
2020/12/26 11:00:33;;;;;;;26.27;15.37;;;;;;;;;;4360758;32;20261;-54
2020/12/26 11:02:58;;;;;;;20.50;12.50;;;;;;;;;;4357512;32;20250;-55
2020/12/26 11:05:24;;;;;;;29.73;16.30;;;;;;;;;;4373199;32;20230;-55
2020/12/26 11:07:49;;;;;;;19.20;11.43;;;;;;;;;;4370741;32;20238;-54
2020/12/26 11:10:14;;;;;;;26.63;14.73;;;;;;;;;;4369304;32;20306;-55
2020/12/26 11:12:40;;;;;;;18.70;11.97;;;;;;;;;;4371738;32;20345;-56
2020/12/26 11:15:05;;;;;;;62.07;35.03;;;;;;;;;;4373309;32;20352;-55
2020/12/26 11:17:31;;;;;;;24.67;12.03;;;;;;;;;;4369397;32;20210;-56
2020/12/26 11:19:56;;;;;;;15.47;9.37;;;;;;;;;;4371198;32;20757;-57
2020/12/26 11:22:22;;;;;;;15.57;9.27;;;;;;;;;;4357199;32;20307;-55
2020/12/26 11:24:47;;;;;;;21.53;9.40;;;;;;;;;;4358981;32;20264;-55
2020/12/26 11:27:13;;;;;;;15.90;7.73;;;;;;;;;;4371390;32;20270;-55
2020/12/26 11:29:38;;;;;;;22.63;10.20;;;;;;;;;;4370999;32;20416;-56
2020/12/26 11:32:04;;;;;;;15.33;8.83;;;;;;;;;;4371907;32;20279;-57
2020/12/26 11:34:29;;;;;;;18.30;9.57;;;;;;;;;;4372528;32;20261;-58
2020/12/26 11:36:55;;;;;;;43.23;16.70;;;;;;;;;;4359837;32;20805;-58
2020/12/26 11:39:20;;;;;;;57.20;24.20;;;;;;;;;;4371043;32;20693;-57
2020/12/26 11:41:46;;;;;;;35.33;19.63;;;;;;;;;;4369800;32;20289;-57
2020/12/26 11:44:11;;;;;;;45.87;26.17;;;;;;;;;;4372571;32;20293;-57
2020/12/26 11:46:37;;;;;;;36.63;22.47;;;;;;;;;;4367191;32;20277;-56
2020/12/26 11:49:03;;;;;;;28.93;16.93;;;;;;;;;;4372746;32;20643;-56
2020/12/26 11:51:29;;;;;;;23.20;10.77;;;;;;;;;;4369297;32;20222;-56
2020/12/26 11:53:54;;;;;;;44.67;25.00;;;;;;;;;;4369854;32;20237;-57
2020/12/26 11:56:20;;;;;;;21.50;14.17;;;;;;;;;;4370281;32;20785;-56
2020/12/26 11:58:45;;;;;;;25.13;12.33;;;;;;;;;;4369998;32;20812;-56
2020/12/26 12:01:16;;;;;;;16.60;8.77;;;;;;;;;;4354846;32;20713;-56
2020/12/26 12:03:41;;;;;;;17.80;9.93;;;;;;;;;;4369812;32;20241;-55
2020/12/26 12:06:06;;;;;;;40.07;20.00;;;;;;;;;;4375330;32;20273;-56
2020/12/26 12:08:32;;;;;;;30.10;16.53;;;;;;;;;;4370654;32;20265;-59
2020/12/26 12:10:58;;;;;;;16.70;9.57;;;;;;;;;;4372210;32;20611;-58
2020/12/26 12:13:23;;;;;;;50.67;23.10;;;;;;;;;;4371221;32;20613;-57
2020/12/26 12:15:49;;;;;;;22.20;8.70;;;;;;;;;;4367367;32;20348;-59
2020/12/26 12:18:14;;;;;;;20.17;9.70;;;;;;;;;;4374737;32;20284;-59
2020/12/26 12:20:40;;;;;;;14.97;8.07;;;;;;;;;;4370103;32;20287;-56
2020/12/26 12:23:06;;;;;;;15.17;8.67;;;;;;;;;;4379073;32;20340;-56
2020/12/26 12:25:32;;;;;;;13.07;8.13;;;;;;;;;;4372439;32;20245;-54
2020/12/26 12:27:58;;;;;;;22.77;10.13;;;;;;;;;;4355819;32;20329;-55
2020/12/26 12:30:24;;;;;;;22.70;9.00;;;;;;;;;;4354825;32;20731;-55
2020/12/26 12:32:50;;;;;;;15.13;6.90;;;;;;;;;;4361309;32;20301;-55
2020/12/26 12:35:16;;;;;;;12.70;6.47;;;;;;;;;;4357293;32;20226;-56
2020/12/26 12:37:48;;;;;;;27.57;12.67;;;;;;;;;;4357247;32;20703;-55
2020/12/26 12:40:14;;;;;;;15.23;8.63;;;;;;;;;;4351111;32;20278;-55
2020/12/26 12:42:40;;;;;;;14.87;9.00;;;;;;;;;;4355993;32;20297;-59
2020/12/26 12:45:06;;;;;;;14.50;9.07;;;;;;;;;;4355735;32;20696;-56
2020/12/26 12:47:32;;;;;;;16.97;8.63;;;;;;;;;;4353944;32;20277;-57
2020/12/26 12:49:58;;;;;;;25.47;13.77;;;;;;;;;;4353649;32;20354;-56
2020/12/26 12:52:23;;;;;;;15.87;10.10;;;;;;;;;;4353585;32;20339;-56
2020/12/26 12:54:49;;;;;;;23.53;10.23;;;;;;;;;;4354284;32;20391;-58
2020/12/26 12:57:14;;;;;;;22.70;11.53;;;;;;;;;;4353940;32;20268;-57
2020/12/26 12:59:41;;;;;;;25.87;15.97;;;;;;;;;;4354225;32;20265;-57
2020/12/26 13:02:08;;;;;;;27.07;18.40;;;;;;;;;;4353944;33;20377;-55
2020/12/26 13:04:34;;;;;;;17.70;12.30;;;;;;;;;;4354876;32;20734;-55
2020/12/26 13:07:00;;;;;;;16.03;8.13;;;;;;;;;;4356101;32;20510;-55
2020/12/26 13:09:25;;;;;;;23.60;9.97;;;;;;;;;;4356278;32;20242;-55
2020/12/26 13:11:51;;;;;;;18.47;11.17;;;;;;;;;;4357615;32;20591;-57
2020/12/26 13:14:17;;;;;;;14.37;8.10;;;;;;;;;;4357530;32;20564;-55
2020/12/26 13:16:43;;;;;;;32.10;15.97;;;;;;;;;;4356452;32;20309;-58
2020/12/26 13:19:08;;;;;;;22.70;13.17;;;;;;;;;;4357297;32;20387;-56
2020/12/26 13:21:34;;;;;;;25.07;15.70;;;;;;;;;;4357985;32;20360;-57
2020/12/26 13:24:00;;;;;;;34.47;18.63;;;;;;;;;;4357850;32;20593;-55
2020/12/26 13:26:25;;;;;;;44.90;22.50;;;;;;;;;;4357755;32;20361;-55
2020/12/26 13:28:52;;;;;;;69.17;36.60;;;;;;;;;;4367869;32;20526;-56
2020/12/26 13:31:26;;;;;;;74.97;50.93;;;;;;;;;;4358822;32;20323;-55
2020/12/26 13:33:53;;;;;;;99.03;54.67;;;;;;;;;;4372026;32;20320;-55
2020/12/26 13:36:18;;;;;;;41.63;20.07;;;;;;;;;;4372304;32;20321;-55
2020/12/26 13:38:44;;;;;;;98.27;54.37;;;;;;;;;;4372533;32;20234;-56
2020/12/26 13:41:10;;;;;;;55.20;28.37;;;;;;;;;;4372315;32;20300;-56
2020/12/26 13:43:36;;;;;;;77.03;48.50;;;;;;;;;;4372322;32;20214;-56
2020/12/26 13:46:01;;;;;;;44.63;24.50;;;;;;;;;;4372407;32;20268;-56
2020/12/26 13:48:27;;;;;;;49.00;29.93;;;;;;;;;;4358716;32;20282;-55
2020/12/26 13:50:52;;;;;;;30.03;17.33;;;;;;;;;;4372236;32;20671;-56
2020/12/26 13:53:18;;;;;;;76.93;44.50;;;;;;;;;;4374590;32;20195;-56
2020/12/26 13:55:44;;;;;;;55.57;27.80;;;;;;;;;;4374922;32;20286;-56
2020/12/26 13:58:10;;;;;;;51.27;26.30;;;;;;;;;;4374890;32;20242;-56
2020/12/26 14:00:35;;;;;;;71.07;35.20;;;;;;;;;;4375009;32;20311;-56
2020/12/26 14:03:01;;;;;;;28.77;14.97;;;;;;;;;;4374993;32;20634;-56
2020/12/26 14:05:26;;;;;;;33.37;18.27;;;;;;;;;;4375046;32;20368;-56
2020/12/26 14:07:52;;;;;;;18.17;10.47;;;;;;;;;;4374739;32;20278;-56
2020/12/26 14:10:18;;;;;;;129.37;56.87;;;;;;;;;;4375366;32;20282;-56